Wallback, West Virginia
Current Conditions -  °F | °C
As of 11:54 AM on Saturday 25 Oct 2014 (Local Time) from KCRW Reporting Station
Few Clouds Few Clouds  
Wind Chill: 59°   Ceiling: Unl
Heat Index: 59°   Visibility: 10mi
Dew Point: 45°   Wind: 8mph
Humidity: 60%   Direction: 250°WSW
Pressure: 30.03"   Gusts: NA
Location:  38.57°N, 81.13°W
Report Text: KCRW 251554Z 25007KT 10SM FEW250 15/07 A3003 RMK AO2 SLP168 T01500072 $
Loading
Personal Weather Stations






























Interactive Weather Map
Tropical Storm Tracking
New forecast layout! Learn more

10-Day Weather Forecast

Advertisements
Track Severe Weather on mobile